Time;durP1;ratioP1;P1;durP2;ratioP2;P2;SDS_P1;SDS_P2;PMS_P1;PMS_P2;Temp;Humidity;BMP_temperature;BMP_pressure;BME280_temperature;BME280_humidity;BME280_pressure;Samples;Min_cycle;Max_cycle;Signal;HPM_P1;HPM_P2
2021/05/29 00:00:43;;;;;;;;;15.25;14.75;;;;;13.93;94.36;101787.38;5020239;28;51161;-54
2021/05/29 00:03:08;;;;;;;;;15.50;15.50;;;;;13.90;94.54;101788.16;5022264;28;52089;-55
2021/05/29 00:05:34;;;;;;;;;16.00;15.50;;;;;13.92;94.31;101791.75;5017878;28;51438;-55
2021/05/29 00:07:59;;;;;;;;;19.50;18.50;;;;;13.91;94.23;101787.31;5021653;28;52025;-55
2021/05/29 00:10:24;;;;;;;;;17.00;16.75;;;;;13.91;94.50;101780.41;5021077;28;51298;-55
2021/05/29 00:12:50;;;;;;;;;16.75;15.75;;;;;13.91;94.46;101779.47;5023090;28;51707;-55
2021/05/29 00:15:15;;;;;;;;;16.75;15.75;;;;;13.90;94.67;101777.72;5021609;28;51291;-55
2021/05/29 00:17:41;;;;;;;;;17.25;16.50;;;;;13.93;94.56;101771.72;5024180;28;51962;-55
2021/05/29 00:20:07;;;;;;;;;13.50;13.50;;;;;13.93;94.50;101782.16;5018845;28;51238;-55
2021/05/29 00:22:32;;;;;;;;;15.25;15.25;;;;;13.93;94.52;101775.25;5015506;28;51184;-56
2021/05/29 00:24:58;;;;;;;;;16.00;15.00;;;;;13.91;94.55;101777.78;5015496;28;51282;-55
2021/05/29 00:27:23;;;;;;;;;17.25;16.75;;;;;13.90;94.84;101777.72;5023247;28;51775;-55
2021/05/29 00:29:48;;;;;;;;;17.50;15.25;;;;;13.90;94.47;101782.94;5016500;28;51061;-55
2021/05/29 00:32:14;;;;;;;;;16.75;15.25;;;;;13.88;94.49;101782.84;5008475;28;54786;-55
2021/05/29 00:34:40;;;;;;;;;16.50;15.00;;;;;13.87;94.62;101782.81;5024569;28;51194;-55
2021/05/29 00:37:06;;;;;;;;;15.25;15.25;;;;;13.85;94.71;101790.56;5010025;28;52001;-56
2021/05/29 00:39:31;;;;;;;;;15.00;14.25;;;;;13.84;94.90;101785.28;5017155;28;51119;-56
2021/05/29 00:41:56;;;;;;;;;18.00;17.25;;;;;13.84;95.23;101788.75;5020928;28;51244;-55
2021/05/29 00:44:22;;;;;;;;;18.00;17.75;;;;;13.82;94.99;101794.75;5006630;28;51255;-55
2021/05/29 00:46:47;;;;;;;;;16.75;15.75;;;;;13.83;95.07;101786.09;5019309;28;53104;-54
2021/05/29 00:49:12;;;;;;;;;17.75;15.75;;;;;13.82;95.51;101779.06;5023676;28;51142;-56
2021/05/29 00:51:39;;;;;;;;;21.25;19.25;;;;;13.81;95.17;101788.66;5021807;28;51321;-53
2021/05/29 00:54:06;;;;;;;;;19.50;18.25;;;;;13.82;95.29;101781.69;5019246;28;52757;-55
2021/05/29 00:56:31;;;;;;;;;19.00;18.25;;;;;13.84;95.22;101780.06;5020209;28;51897;-54
2021/05/29 00:58:57;;;;;;;;;16.25;16.25;;;;;13.84;94.76;101772.22;5019628;28;51740;-53
2021/05/29 01:01:22;;;;;;;;;18.00;17.75;;;;;13.85;95.34;101776.63;5018895;28;51232;-53
2021/05/29 01:03:47;;;;;;;;;19.00;18.25;;;;;13.85;95.64;101774.00;5024389;28;51260;-53
2021/05/29 01:06:13;;;;;;;;;23.25;19.25;;;;;13.84;95.60;101778.31;5026064;28;51763;-54
2021/05/29 01:08:38;;;;;;;;;20.00;19.00;;;;;13.82;95.66;101777.38;5012300;28;51241;-55
2021/05/29 01:11:04;;;;;;;;;18.00;17.75;;;;;13.82;95.47;101773.84;5024520;28;51171;-55
2021/05/29 01:13:34;;;;;;;;;20.00;20.00;;;;;13.86;95.49;101781.00;5024067;28;51437;-55
2021/05/29 01:16:04;;;;;;;;;23.00;21.75;;;;;13.86;95.53;101775.78;5023906;28;51193;-55
2021/05/29 01:18:29;;;;;;;;;23.75;23.25;;;;;13.87;95.79;101769.75;5022523;28;51362;-54
2021/05/29 01:20:55;;;;;;;;;22.25;20.50;;;;;13.89;95.65;101771.63;5023125;28;51320;-54
2021/05/29 01:23:20;;;;;;;;;21.25;20.00;;;;;13.88;95.71;101777.63;5020485;28;51323;-55
2021/05/29 01:25:47;;;;;;;;;21.50;20.00;;;;;13.90;95.88;101776.00;5013934;28;51909;-54
2021/05/29 01:28:19;;;;;;;;;18.75;18.75;;;;;13.94;95.88;101776.13;5026812;28;52618;-54
2021/05/29 01:30:56;;;;;;;;;18.25;18.00;;;;;13.95;95.84;101780.53;5032639;28;51607;-56
2021/05/29 01:33:27;;;;;;;;;24.75;21.25;;;;;13.96;95.74;101783.22;5021222;28;51212;-57
2021/05/29 01:36:00;;;;;;;;;24.00;23.00;;;;;13.96;96.02;101788.44;5017459;28;52207;-54
2021/05/29 01:38:27;;;;;;;;;21.75;19.00;;;;;13.96;95.88;101788.44;5020388;28;52828;-54
2021/05/29 01:40:52;;;;;;;;;22.50;21.50;;;;;13.97;95.93;101790.22;5021238;28;51009;-53
2021/05/29 01:43:19;;;;;;;;;20.25;19.50;;;;;13.99;95.57;101791.16;5026542;28;51464;-54
2021/05/29 01:45:45;;;;;;;;;20.00;19.75;;;;;14.00;95.67;101789.47;5014296;28;53923;-54
2021/05/29 01:48:11;;;;;;;;;21.25;20.75;;;;;13.97;95.60;101794.53;5027547;28;52213;-54
2021/05/29 01:50:49;;;;;;;;;22.75;21.50;;;;;13.96;95.95;101792.75;5031589;28;51136;-54
2021/05/29 01:53:17;;;;;;;;;22.00;20.00;;;;;13.95;95.62;101794.47;5025655;28;51108;-56
2021/05/29 01:55:44;;;;;;;;;23.00;21.75;;;;;13.95;96.11;101797.06;5027726;28;51042;-55
2021/05/29 01:58:09;;;;;;;;;24.50;24.00;;;;;13.95;95.98;101786.63;5026628;28;50883;-55
2021/05/29 02:00:35;;;;;;;;;19.75;18.25;;;;;13.95;96.32;101801.44;5023583;28;51125;-56
2021/05/29 02:03:00;;;;;;;;;19.25;18.25;;;;;13.95;96.03;101794.47;5019669;28;51293;-54
2021/05/29 02:05:30;;;;;;;;;20.25;20.00;;;;;13.96;95.97;101791.06;5028787;28;51506;-54
2021/05/29 02:08:05;;;;;;;;;19.75;19.50;;;;;13.97;96.06;101794.53;5017688;28;51173;-55
2021/05/29 02:10:32;;;;;;;;;20.25;19.50;;;;;13.95;96.06;101791.84;5025173;28;51127;-55
2021/05/29 02:13:00;;;;;;;;;24.25;23.00;;;;;13.94;96.33;101797.91;5030993;28;51043;-52
2021/05/29 02:15:32;;;;;;;;;20.25;18.25;;;;;13.90;96.25;101796.00;5033448;28;51805;-57
2021/05/29 02:17:59;;;;;;;;;21.50;18.50;;;;;13.86;96.26;101796.66;5030349;28;51342;-55
2021/05/29 02:20:46;;;;;;;;;18.25;18.25;;;;;13.82;95.92;101789.53;5016554;28;51496;-54
2021/05/29 02:23:19;;;;;;;;;21.25;21.00;;;;;13.77;95.93;101792.84;5027661;28;51363;-53
2021/05/29 02:25:46;;;;;;;;;20.00;20.00;;;;;13.74;95.87;101791.78;5015536;28;51869;-53
2021/05/29 02:28:11;;;;;;;;;22.25;20.25;;;;;13.70;95.92;101795.09;5020342;28;51099;-52
2021/05/29 02:30:37;;;;;;;;;19.00;18.00;;;;;13.65;95.95;101800.97;5032149;28;51342;-53
2021/05/29 02:33:05;;;;;;;;;23.25;22.25;;;;;13.62;96.07;101800.88;5022350;28;53743;-51
2021/05/29 02:35:30;;;;;;;;;21.75;21.00;;;;;13.60;96.01;101804.22;5030461;28;51657;-55
2021/05/29 02:37:55;;;;;;;;;20.75;20.00;;;;;13.58;96.20;101806.75;5018715;28;51524;-52
2021/05/29 02:40:21;;;;;;;;;20.25;18.25;;;;;13.55;96.05;101809.22;5026235;28;51228;-52
2021/05/29 02:42:47;;;;;;;;;21.50;20.75;;;;;13.53;95.89;101813.50;5014954;28;51079;-54
2021/05/29 02:45:13;;;;;;;;;24.75;24.00;;;;;13.49;95.93;101807.25;5025123;28;53208;-53
2021/05/29 02:47:38;;;;;;;;;22.25;21.25;;;;;13.47;96.09;101814.09;5032228;28;51125;-54
2021/05/29 02:50:04;;;;;;;;;18.00;17.50;;;;;13.45;96.00;101812.22;5019765;28;51060;-53
2021/05/29 02:52:30;;;;;;;;;21.25;19.75;;;;;13.40;96.11;101806.78;5029358;28;51034;-54
2021/05/29 02:54:55;;;;;;;;;19.75;19.75;;;;;13.37;96.05;101804.03;5020612;28;51150;-54
2021/05/29 02:57:21;;;;;;;;;19.75;19.00;;;;;13.35;95.81;101813.47;5017621;28;51133;-59
2021/05/29 02:59:46;;;;;;;;;22.00;21.75;;;;;13.31;96.01;101804.63;5027885;28;51813;-54
2021/05/29 03:02:12;;;;;;;;;21.50;21.50;;;;;13.29;95.84;101807.97;5031710;28;51137;-54
2021/05/29 03:04:37;;;;;;;;;23.25;21.50;;;;;13.26;95.86;101809.63;5024153;28;51894;-54
2021/05/29 03:07:04;;;;;;;;;22.50;21.50;;;;;13.25;95.96;101807.81;5022881;28;50920;-53
2021/05/29 03:09:30;;;;;;;;;23.00;21.75;;;;;13.24;96.18;101805.19;5033433;28;51204;-54
2021/05/29 03:11:57;;;;;;;;;19.00;19.00;;;;;13.24;95.99;101807.78;5027359;28;51156;-53
2021/05/29 03:14:22;;;;;;;;;20.00;18.75;;;;;13.23;96.13;101806.88;5030950;28;51821;-53
2021/05/29 03:16:49;;;;;;;;;18.00;16.75;;;;;13.24;96.18;101815.59;5031610;28;51251;-53
2021/05/29 03:19:15;;;;;;;;;19.00;18.50;;;;;13.23;95.94;101809.47;5028995;28;51214;-53
2021/05/29 03:21:40;;;;;;;;;23.75;23.25;;;;;13.22;96.12;101810.31;5031481;28;51215;-56
2021/05/29 03:24:07;;;;;;;;;21.25;20.00;;;;;13.22;96.03;101812.00;5014333;28;51110;-52
2021/05/29 03:26:32;;;;;;;;;24.25;22.75;;;;;13.21;96.17;101816.31;5018799;28;51222;-52
2021/05/29 03:28:58;;;;;;;;;25.00;24.25;;;;;13.20;96.21;101816.28;5018252;28;51118;-53
2021/05/29 03:31:23;;;;;;;;;23.75;22.25;;;;;13.19;96.41;101822.28;5026475;28;51109;-53
2021/05/29 03:33:49;;;;;;;;;21.75;21.75;;;;;13.18;95.88;101825.72;5022738;28;54340;-50
2021/05/29 03:36:14;;;;;;;;;24.75;23.50;;;;;13.17;96.29;101824.84;5026345;28;51213;-51
2021/05/29 03:38:41;;;;;;;;;19.50;19.50;;;;;13.16;96.49;101830.00;5013630;28;51114;-57
2021/05/29 03:41:07;;;;;;;;;23.00;21.50;;;;;13.15;96.21;101823.88;5006711;28;52041;-52
2021/05/29 03:43:32;;;;;;;;;22.75;22.50;;;;;13.14;96.26;101819.47;5031296;28;52286;-51
2021/05/29 03:45:58;;;;;;;;;21.75;21.75;;;;;13.12;96.40;101814.19;5024278;28;52145;-53
2021/05/29 03:48:23;;;;;;;;;27.75;24.25;;;;;13.14;96.47;101819.47;5025265;28;51215;-50
2021/05/29 03:50:48;;;;;;;;;23.25;22.50;;;;;13.16;96.20;101822.16;5021934;28;51441;-51
2021/05/29 03:53:14;;;;;;;;;25.75;23.50;;;;;13.15;95.96;101821.25;5011741;28;51701;-49
2021/05/29 03:55:39;;;;;;;;;21.75;21.25;;;;;13.13;96.46;101822.91;5023120;28;51052;-54
2021/05/29 03:58:05;;;;;;;;;25.00;23.25;;;;;13.12;96.50;101827.22;5023140;28;51111;-51
2021/05/29 04:00:32;;;;;;;;;23.00;22.75;;;;;13.12;96.16;101826.31;5017164;28;51469;-50
2021/05/29 04:02:58;;;;;;;;;27.50;25.00;;;;;13.12;96.25;101837.66;5026648;28;51702;-52
2021/05/29 04:05:24;;;;;;;;;25.25;24.25;;;;;13.11;96.25;101832.34;5026287;28;51247;-52
2021/05/29 04:07:53;;;;;;;;;22.50;21.75;;;;;13.13;96.83;101838.56;5015647;28;51026;-53
2021/05/29 04:10:22;;;;;;;;;24.75;24.00;;;;;13.16;96.50;101843.03;5021829;28;53158;-51
2021/05/29 04:12:48;;;;;;;;;30.00;27.75;;;;;13.16;96.91;101837.81;5029708;28;51774;-52
2021/05/29 04:15:15;;;;;;;;;24.50;23.50;;;;;13.16;96.56;101849.13;5026971;28;51571;-52
2021/05/29 04:17:41;;;;;;;;;29.00;26.50;;;;;13.17;96.65;101837.00;5025229;28;51009;-52
2021/05/29 04:20:08;;;;;;;;;27.50;24.75;;;;;13.17;96.45;101845.72;5029837;28;51163;-52
2021/05/29 04:22:33;;;;;;;;;27.00;25.00;;;;;13.17;96.64;101850.03;5031266;28;52060;-53
2021/05/29 04:24:59;;;;;;;;;31.50;28.25;;;;;13.19;96.45;101848.38;5031996;28;51102;-52
2021/05/29 04:27:25;;;;;;;;;28.50;25.75;;;;;13.19;96.58;101844.06;5026187;28;51383;-51
2021/05/29 04:29:50;;;;;;;;;24.50;24.00;;;;;13.21;96.65;101844.16;5020873;28;51179;-51
2021/05/29 04:32:15;;;;;;;;;26.00;24.75;;;;;13.23;96.53;101839.88;5016940;28;51779;-50
2021/05/29 04:34:41;;;;;;;;;28.00;25.75;;;;;13.26;96.58;101846.16;5012902;28;50927;-52
2021/05/29 04:37:06;;;;;;;;;27.75;26.00;;;;;13.30;96.34;101841.06;5016075;28;51029;-50
2021/05/29 04:39:32;;;;;;;;;24.00;22.75;;;;;13.34;96.54;101845.63;5015607;28;51378;-51
2021/05/29 04:41:58;;;;;;;;;28.00;26.25;;;;;13.38;96.88;101839.72;5031121;28;51134;-52
2021/05/29 04:44:24;;;;;;;;;26.50;25.25;;;;;13.44;96.81;101854.78;5032687;28;51727;-53
2021/05/29 04:46:52;;;;;;;;;26.00;25.00;;;;;13.52;96.59;101853.47;5027940;28;51173;-52
2021/05/29 04:49:19;;;;;;;;;27.00;24.75;;;;;13.62;96.91;101865.22;5013005;28;50987;-52
2021/05/29 04:51:45;;;;;;;;;31.75;26.50;;;;;13.71;96.89;101860.41;5005122;28;51880;-51
2021/05/29 04:54:11;;;;;;;;;31.75;30.50;;;;;13.82;96.64;101852.19;5011971;28;51057;-51
2021/05/29 04:56:37;;;;;;;;;25.75;24.75;;;;;13.94;97.09;101857.06;5011395;28;51147;-51
2021/05/29 04:59:02;;;;;;;;;29.50;29.00;;;;;14.06;97.07;101857.63;5031006;28;51280;-50
2021/05/29 05:01:30;;;;;;;;;27.00;26.75;;;;;14.17;96.81;101866.84;5030282;28;51334;-52
2021/05/29 05:03:56;;;;;;;;;31.25;26.25;;;;;14.27;96.94;101867.25;5016019;28;51105;-53
2021/05/29 05:06:21;;;;;;;;;28.25;25.50;;;;;14.34;96.95;101860.59;5015899;28;51071;-53
2021/05/29 05:08:46;;;;;;;;;31.50;27.25;;;;;14.46;96.75;101868.94;5030250;28;51321;-52
2021/05/29 05:11:12;;;;;;;;;29.00;28.25;;;;;14.56;96.69;101862.41;5031076;28;51849;-52
2021/05/29 05:13:37;;;;;;;;;24.75;24.75;;;;;14.73;96.85;101872.66;5029854;28;51318;-50
2021/05/29 05:16:03;;;;;;;;;31.25;29.50;;;;;14.97;97.11;101867.59;5029166;28;51239;-52
2021/05/29 05:18:28;;;;;;;;;29.00;28.00;;;;;15.21;97.08;101862.47;5025583;28;51343;-52
2021/05/29 05:20:54;;;;;;;;;27.75;27.75;;;;;15.35;96.79;101868.25;5018591;28;51089;-50
2021/05/29 05:23:22;;;;;;;;;27.75;27.00;;;;;15.48;96.26;101860.88;5035605;28;51069;-52
2021/05/29 05:25:50;;;;;;;;;27.75;25.25;;;;;15.67;96.64;101867.75;5033728;28;50962;-51
2021/05/29 05:28:16;;;;;;;;;28.00;28.00;;;;;15.86;96.56;101869.31;5028583;28;51325;-52
2021/05/29 05:30:42;;;;;;;;;25.50;24.75;;;;;16.03;96.63;101870.81;5026726;28;52857;-51
2021/05/29 05:33:08;;;;;;;;;26.50;26.50;;;;;16.16;96.12;101877.41;5015121;28;51153;-51
2021/05/29 05:35:33;;;;;;;;;27.00;25.25;;;;;16.29;96.57;101877.00;5015373;28;50987;-51
2021/05/29 05:37:59;;;;;;;;;25.75;25.25;;;;;16.44;96.58;101873.16;5020126;28;51103;-53
2021/05/29 05:40:24;;;;;;;;;28.00;27.50;;;;;16.62;96.63;101879.03;5015132;28;51226;-52
2021/05/29 05:42:50;;;;;;;;;28.75;27.25;;;;;16.82;96.58;101883.16;5033165;28;51051;-53
2021/05/29 05:45:17;;;;;;;;;33.25;30.75;;;;;17.02;96.51;101875.97;5032908;28;50920;-51
2021/05/29 05:47:44;;;;;;;;;31.25;25.75;;;;;17.35;96.24;101882.28;5019277;28;51197;-51
2021/05/29 05:50:11;;;;;;;;;29.75;29.75;;;;;17.81;96.73;101890.66;5022434;28;51173;-52
2021/05/29 05:52:39;;;;;;;;;27.75;27.00;;;;;18.22;94.89;101891.00;5025784;28;51029;-52
2021/05/29 05:55:07;;;;;;;;;24.75;24.50;;;;;18.53;94.02;101890.03;5027061;28;51377;-52
2021/05/29 05:57:33;;;;;;;;;29.50;27.50;;;;;18.75;93.30;101887.13;5035107;28;51172;-53
2021/05/29 05:59:59;;;;;;;;;28.00;27.75;;;;;18.97;91.96;101894.66;5030344;28;51122;-52
2021/05/29 06:02:25;;;;;;;;;27.50;27.25;;;;;19.06;91.86;101900.19;5019341;28;51124;-50
2021/05/29 06:04:51;;;;;;;;;27.50;26.75;;;;;19.14;91.07;101901.28;5014876;28;51400;-52
2021/05/29 06:07:17;;;;;;;;;29.25;27.50;;;;;19.11;90.93;101908.22;5023880;28;51132;-52
2021/05/29 06:09:42;;;;;;;;;28.50;27.75;;;;;19.10;90.63;101914.34;5023896;28;51101;-55
2021/05/29 06:12:08;;;;;;;;;26.75;26.00;;;;;19.13;90.68;101919.66;5023239;28;51276;-53
2021/05/29 06:20:03;;;;;;;;;25.25;24.25;;;;;19.27;89.98;101930.53;5014199;28;51578;-50
2021/05/29 06:22:29;;;;;;;;;27.50;25.00;;;;;19.36;89.91;101933.41;5014507;28;51024;-52
2021/05/29 06:24:54;;;;;;;;;19.50;19.50;;;;;19.46;89.85;101941.53;5014706;28;51234;-54
2021/05/29 06:27:19;;;;;;;;;41.50;34.75;;;;;19.62;89.93;101937.50;5018853;28;51349;-52
2021/05/29 06:29:45;;;;;;;;;24.00;24.00;;;;;19.84;89.60;101940.59;5032870;28;52552;-52
2021/05/29 06:32:13;;;;;;;;;25.00;25.00;;;;;20.16;89.69;101929.88;5033915;28;51120;-54
2021/05/29 06:34:40;;;;;;;;;21.00;21.00;;;;;20.83;89.30;101934.66;5034360;28;50963;-54
2021/05/29 06:37:06;;;;;;;;;22.50;21.50;;;;;21.51;88.61;101936.63;5030321;28;51041;-55
2021/05/29 06:39:31;;;;;;;;;22.75;22.00;;;;;22.36;89.28;101928.91;5017645;28;51420;-52
2021/05/29 06:41:56;;;;;;;;;25.00;25.00;;;;;23.35;87.79;101928.09;5022754;28;51126;-52
2021/05/29 06:44:22;;;;;;;;;20.25;19.75;;;;;24.50;87.91;101928.59;5034384;28;51105;-53
2021/05/29 06:46:47;;;;;;;;;25.00;24.00;;;;;25.65;86.70;101937.47;5028667;28;51327;-51
2021/05/29 06:49:14;;;;;;;;;21.25;21.00;;;;;26.41;86.13;101937.16;4996075;28;53821;-52
2021/05/29 06:54:18;;;;;;;;;20.25;20.25;;;;;27.27;84.18;101920.50;5014378;28;51185;-53
2021/05/29 06:59:27;;;;;;;;;17.75;17.75;;;;;27.09;84.28;101937.53;5019215;28;51654;-53
2021/05/29 07:01:53;;;;;;;;;16.00;15.00;;;;;26.93;83.67;101942.09;5022299;28;51251;-52
2021/05/29 07:04:18;;;;;;;;;21.50;21.50;;;;;26.49;83.45;101942.41;5025633;28;51085;-51
2021/05/29 07:06:44;;;;;;;;;12.67;12.00;;;;;25.84;82.10;101945.38;5022582;28;51421;-52
2021/05/29 07:09:10;;;;;;;;;18.00;16.67;;;;;25.47;83.55;101939.25;5022718;28;51894;-54
2021/05/29 07:11:38;;;;;;;;;19.00;19.00;;;;;25.26;83.66;101941.06;5023377;28;51402;-54
2021/05/29 07:14:05;;;;;;;;;19.25;18.50;;;;;25.14;82.33;101946.38;5029987;28;51193;-52
2021/05/29 07:16:34;;;;;;;;;18.67;15.67;;;;;24.86;76.81;101941.94;5031696;28;51439;-51
2021/05/29 07:18:59;;;;;;;;;7.33;7.33;;;;;24.47;80.30;101949.84;4999468;28;51142;-53
2021/05/29 07:21:24;;;;;;;;;6.33;6.33;;;;;23.97;78.20;101948.75;5014551;28;51288;-53
2021/05/29 07:23:50;;;;;;;;;8.00;7.00;;;;;23.53;77.52;101947.63;5027610;28;51332;-51
2021/05/29 07:26:15;;;;;;;;;6.00;6.00;;;;;23.40;82.07;101951.97;5021057;28;51290;-52
2021/05/29 07:30:36;;;;;;;;;6.67;6.00;;;;;22.97;81.28;101952.47;5082338;27;51012;-49
2021/05/29 07:33:03;;;;;;;;;6.33;6.33;;;;;22.72;80.67;101944.31;5068489;28;50965;-48
2021/05/29 07:35:28;;;;;;;;;6.00;6.00;;;;;22.46;76.88;101950.19;5069422;28;51251;-49
2021/05/29 07:37:54;;;;;;;;;6.00;6.00;;;;;22.01;71.67;101963.78;5065531;27;51991;-48
2021/05/29 07:40:23;;;;;;;;;7.00;7.00;;;;;21.79;79.55;101960.84;5069452;27;51162;-51
2021/05/29 07:42:48;;;;;;;;;5.00;5.00;;;;;21.87;81.00;101966.22;5068735;27;51044;-50
2021/05/29 07:45:15;;;;;;;;;6.00;6.00;;;;;21.81;72.56;101966.16;5067694;27;51384;-48
2021/05/29 07:47:41;;;;;;;;;6.33;6.33;;;;;21.84;63.66;101953.84;5070034;27;52961;-49
2021/05/29 07:50:08;;;;;;;;;6.00;6.00;;;;;21.89;78.34;101965.38;5062939;28;51144;-49
2021/05/29 07:52:34;;;;;;;;;5.00;5.00;;;;;22.00;78.79;101956.72;5067750;28;51124;-47
2021/05/29 07:54:59;;;;;;;;;6.33;6.33;;;;;22.18;75.14;101958.72;5063453;28;51009;-48
2021/05/29 07:57:24;;;;;;;;;5.00;5.00;;;;;22.47;78.70;101963.44;5056411;27;51112;-48
2021/05/29 07:59:50;;;;;;;;;5.33;5.33;;;;;22.73;77.25;101964.63;5067564;28;51125;-49
2021/05/29 08:02:21;;;;;;;;;7.33;7.00;;;;;22.89;73.25;101965.66;5071168;27;51048;-48
2021/05/29 08:04:47;;;;;;;;;7.67;6.00;;;;;23.23;68.90;101970.38;5078084;27;51295;-47
2021/05/29 08:07:12;;;;;;;;;5.00;5.00;;;;;23.58;78.73;101970.66;5054600;28;51769;-48
2021/05/29 08:09:41;;;;;;;;;7.00;6.33;;;;;23.88;68.98;101967.25;5065170;27;51071;-49
2021/05/29 08:12:07;;;;;;;;;6.00;6.00;;;;;24.24;58.97;101971.91;5054379;28;51389;-49
2021/05/29 08:14:34;;;;;;;;;6.00;6.00;;;;;24.57;73.12;101976.41;5059903;28;51128;-48
2021/05/29 08:16:59;;;;;;;;;6.00;5.00;;;;;24.87;60.39;101959.66;5068348;27;51509;-48
2021/05/29 08:19:24;;;;;;;;;4.00;4.00;;;;;25.75;70.58;101970.22;5066865;27;51039;-50
2021/05/29 08:21:50;;;;;;;;;5.00;5.00;;;;;26.91;66.80;101962.53;5065604;28;51009;-49
2021/05/29 08:24:16;;;;;;;;;5.33;5.33;;;;;27.31;41.68;101959.53;5064792;27;51207;-49
2021/05/29 08:26:42;;;;;;;;;5.00;5.00;;;;;27.29;68.04;101969.34;5055547;28;51874;-48
2021/05/29 08:29:10;;;;;;;;;5.00;5.00;;;;;27.46;62.19;101970.97;5054521;27;51388;-48
2021/05/29 08:31:36;;;;;;;;;4.67;4.67;;;;;27.24;69.50;101980.03;5052981;28;51360;-50
2021/05/29 08:34:03;;;;;;;;;6.33;5.00;;;;;27.07;68.69;101974.84;5052827;27;51203;-50
2021/05/29 08:36:28;;;;;;;;;4.00;4.00;;;;;27.13;45.75;101979.25;5061438;28;51115;-49
2021/05/29 08:38:54;;;;;;;;;5.67;5.67;;;;;27.63;71.39;101978.81;5060303;28;50999;-50
2021/05/29 08:41:19;;;;;;;;;6.33;6.33;;;;;27.82;72.28;101974.13;5051363;28;51123;-51
2021/05/29 08:43:45;;;;;;;;;5.33;4.67;;;;;27.71;55.57;101981.41;5052976;28;50919;-54
2021/05/29 08:46:11;;;;;;;;;4.00;4.00;;;;;27.28;60.16;101980.00;5053229;28;53190;-52
2021/05/29 08:48:40;;;;;;;;;7.00;6.00;;;;;26.94;58.54;101975.84;5054424;28;50944;-53
2021/05/29 08:51:13;;;;;;;;;5.33;5.00;;;;;27.06;55.53;101980.19;5044171;28;51500;-52
2021/05/29 08:53:49;;;;;;;;;6.33;5.33;;;;;27.35;55.90;101976.41;5040867;28;51208;-53
2021/05/29 08:56:17;;;;;;;;;6.00;5.67;;;;;27.68;49.69;101974.31;5053438;28;51871;-54
2021/05/29 08:58:43;;;;;;;;;3.67;3.00;;;;;27.77;49.35;101982.22;5052695;28;51015;-54
2021/05/29 09:01:12;;;;;;;;;5.00;4.00;;;;;27.88;50.81;101984.75;5053514;28;51129;-54
2021/05/29 09:03:48;;;;;;;;;5.00;5.00;;;;;28.77;49.75;101972.88;5054478;28;51339;-55
2021/05/29 09:06:20;;;;;;;;;4.67;4.67;;;;;30.04;35.26;101973.31;5054240;28;53063;-54
2021/05/29 09:08:55;;;;;;;;;4.00;3.67;;;;;30.77;35.03;101980.63;5053197;28;51461;-53
2021/05/29 09:11:43;;;;;;;;;4.33;4.33;;;;;30.44;23.75;101977.78;5054438;28;50895;-54
2021/05/29 09:14:21;;;;;;;;;4.33;4.33;;;;;30.88;33.80;101979.47;5053730;28;51050;-54
2021/05/29 09:17:08;;;;;;;;;4.00;4.00;;;;;31.94;34.39;101982.06;5041609;28;52019;-55
2021/05/29 09:19:56;;;;;;;;;4.00;4.00;;;;;32.16;29.84;101990.34;5052663;28;50945;-55
2021/05/29 09:22:26;;;;;;;;;4.67;4.67;;;;;31.92;25.92;101982.09;5053529;28;51320;-56
2021/05/29 09:25:06;;;;;;;;;4.00;3.33;;;;;31.38;25.64;101991.63;5054184;28;51194;-55
2021/05/29 09:27:37;;;;;;;;;5.67;5.67;;;;;30.55;22.92;101990.06;5052719;28;50936;-54
2021/05/29 09:30:08;;;;;;;;;5.00;5.00;;;;;30.08;29.40;101996.44;5053374;28;50958;-56
2021/05/29 09:32:35;;;;;;;;;6.00;5.67;;;;;29.77;30.82;101991.69;5050983;28;51806;-55
2021/05/29 09:35:07;;;;;;;;;6.00;4.00;;;;;29.86;28.48;101992.41;5053871;28;51270;-54
2021/05/29 09:37:33;;;;;;;;;3.67;3.67;;;;;29.88;23.60;101987.00;5050167;28;51906;-55
2021/05/29 09:40:00;;;;;;;;;4.00;4.00;;;;;30.09;29.57;101991.00;5043039;28;51165;-55
2021/05/29 09:42:29;;;;;;;;;4.67;4.67;;;;;30.67;29.02;101986.22;5053659;28;51139;-55
2021/05/29 09:44:55;;;;;;;;;4.33;4.33;;;;;31.30;27.36;101978.41;5053656;28;50958;-55
2021/05/29 09:47:24;;;;;;;;;5.00;5.00;;;;;32.11;28.33;101977.97;5057939;28;51160;-56
2021/05/29 09:49:55;;;;;;;;;6.00;6.00;;;;;33.66;22.91;101977.38;5049500;28;51041;-55
2021/05/29 09:52:27;;;;;;;;;5.00;5.00;;;;;34.99;17.76;101980.28;5051878;28;51084;-57
2021/05/29 09:54:54;;;;;;;;;6.00;5.00;;;;;36.64;22.44;101976.34;5053522;28;50954;-55
2021/05/29 09:57:20;;;;;;;;;3.67;3.67;;;;;38.03;19.72;101985.34;5052092;28;51400;-55
2021/05/29 09:59:59;;;;;;;;;3.00;3.00;;;;;39.42;21.75;101998.13;5053110;28;51099;-55
2021/05/29 10:02:25;;;;;;;;;4.00;4.00;;;;;40.87;13.33;101992.44;5052830;28;51460;-55
2021/05/29 10:04:55;;;;;;;;;4.00;4.00;;;;;41.53;18.60;101996.06;5052292;28;51028;-55
2021/05/29 10:07:25;;;;;;;;;4.00;4.00;;;;;42.76;18.74;102006.19;5051932;28;52611;-54
2021/05/29 10:09:51;;;;;;;;;5.00;4.67;;;;;42.99;17.62;102000.78;5041017;28;51031;-54
2021/05/29 10:12:17;;;;;;;;;3.00;3.00;;;;;43.03;14.58;102005.91;5052736;28;51124;-55
2021/05/29 10:14:43;;;;;;;;;2.33;2.33;;;;;43.19;10.68;102007.41;5068482;28;51397;-56
2021/05/29 10:17:13;;;;;;;;;5.00;3.33;;;;;43.25;13.14;101997.84;5052021;28;51076;-55
2021/05/29 10:19:41;;;;;;;;;5.00;4.00;;;;;43.03;13.61;102000.44;5051803;28;51090;-55
2021/05/29 10:22:12;;;;;;;;;6.00;5.33;;;;;43.60;14.95;102001.50;5051408;28;51124;-56
2021/05/29 10:24:39;;;;;;;;;2.33;2.33;;;;;44.79;10.91;101993.50;5052787;28;51113;-56
2021/05/29 10:27:13;;;;;;;;;3.00;3.00;;;;;44.55;11.77;101997.34;5051979;28;51904;-55
2021/05/29 10:29:39;;;;;;;;;4.00;4.00;;;;;44.57;13.96;101998.06;5052954;28;51105;-55
2021/05/29 10:32:18;;;;;;;;;2.00;2.00;;;;;44.62;8.86;102003.16;5050258;28;51015;-56
2021/05/29 10:35:09;;;;;;;;;2.33;2.00;;;;;43.18;9.70;101999.34;5050972;28;51407;-56
2021/05/29 10:37:40;;;;;;;;;3.67;3.67;;;;;42.19;12.23;101993.13;5048260;28;52990;-55
2021/05/29 10:40:12;;;;;;;;;2.33;2.33;;;;;42.21;11.99;101993.00;5039285;28;51224;-57
2021/05/29 10:42:37;;;;;;;;;4.00;4.00;;;;;41.49;11.52;101986.38;5051603;28;51212;-56
2021/05/29 10:45:26;;;;;;;;;4.00;4.00;;;;;41.12;13.46;101979.81;5051687;28;51239;-56
2021/05/29 10:48:04;;;;;;;;;3.00;3.00;;;;;40.50;10.65;101982.16;5056022;28;52029;-56
2021/05/29 10:50:59;;;;;;;;;5.00;5.00;;;;;39.43;13.63;101989.00;5039887;28;51203;-56
2021/05/29 10:53:54;;;;;;;;;5.33;5.00;;;;;39.81;14.24;101995.69;5050005;28;51293;-57
2021/05/29 10:56:20;;;;;;;;;4.00;4.00;;;;;40.26;13.96;101992.84;5044969;28;51372;-55
2021/05/29 10:59:03;;;;;;;;;3.00;2.00;;;;;39.72;13.10;101987.19;5052074;28;52588;-57
2021/05/29 11:01:36;;;;;;;;;4.33;4.33;;;;;38.28;13.97;101989.38;5050582;28;51109;-57
2021/05/29 11:04:22;;;;;;;;;4.00;4.00;;;;;38.52;13.80;101983.47;5037443;28;51140;-56
2021/05/29 11:07:07;;;;;;;;;4.33;4.00;;;;;38.39;14.35;101990.63;5051094;28;51254;-57
2021/05/29 11:09:33;;;;;;;;;5.00;5.00;;;;;38.06;14.58;101987.00;5048708;28;51958;-55
2021/05/29 11:11:59;;;;;;;;;6.67;6.33;;;;;37.34;15.36;101979.13;5050971;28;51009;-57
2021/05/29 11:14:48;;;;;;;;;6.33;6.00;;;;;36.43;15.98;101978.28;5050451;28;51075;-57
2021/05/29 11:17:15;;;;;;;;;5.00;5.00;;;;;35.55;16.04;101985.94;5051048;28;51216;-57
2021/05/29 11:19:43;;;;;;;;;6.00;6.00;;;;;34.08;15.86;101989.25;5048577;28;52194;-56
2021/05/29 11:22:17;;;;;;;;;5.00;5.00;;;;;33.04;18.56;101982.22;5051136;28;51071;-58
2021/05/29 11:24:49;;;;;;;;;4.33;4.33;;;;;32.36;17.38;101986.16;5047101;28;51487;-57
2021/05/29 11:27:17;;;;;;;;;3.00;3.00;;;;;31.38;18.24;101979.09;5043104;28;51004;-57
2021/05/29 11:30:00;;;;;;;;;4.67;3.67;;;;;30.42;19.29;101990.34;5041290;28;52917;-56